PWSweather.com
Personal Weather Stations
Station Observations
BANEKERE1
AntwerpenBE

AntwerpenBE

Lat: 51.2809101, Lon: 4.4202713

Elevation: 40

Station Type:

http://www.akker.be

Latest ConditionsUpdated 4:50:04 PM GMT+01:01 Sunday, May 3, 2015
Currently Today's Max Today's Min Today's Average
Temperature 62.5°F16.9°C 62.5°F16.9°C 51.9°F11.1°C 56.5°F13.6°C
Dew Point 60.1°F15.6°C 60.4°F15.8°C 41.1°F5.1°C 50.6°F10.3°C
Winds 4.6 mph S7.4 kmh S 11.5 mph S18.5 kmh S - 3.5 mph 5.6 kmh
Wind Gusts 6.9 mph11.1 kmh 16.1 mph25.9 kmh - -
Humidity 92% 95% 62% 81%
Pressure 29.54 in1000.3 mb 29.75 in1007.5 mb 29.54 in1000.3 mb -
Precipitation - 0.05 in1.3 mm - -
Hour Temp Dew Point Humidity Winds Wind Gusts Pressure Precip Precip Rate Daily Precip Total
04:50 PM 62.5°F16.9°C 60.1°F15.6°C 92% 4.6 mph S7.4 kmh S 6.9 mph11.1 kmh 29.54 in1000.3 mb - 0.00 in0.0 mm 0.05 in1.3 mm
04:40 PM 62.5°F16.9°C 60.4°F15.8°C 93% 6.9 mph S11.1 kmh S 10.4 mph16.7 kmh 29.54 in1000.3 mb - 0.00 in0.0 mm 0.05 in1.3 mm
04:30 PM 62.1°F16.7°C 60.1°F15.6°C 93% 9.2 mph SSW14.8 kmh SSW 11.5 mph18.5 kmh 29.54 in1000.3 mb - 0.00 in0.0 mm 0.05 in1.3 mm
04:20 PM 61.7°F16.5°C 60.0°F15.6°C 94% 6.9 mph S11.1 kmh S 12.7 mph20.4 kmh 29.54 in1000.3 mb - 0.00 in0.0 mm 0.05 in1.3 mm
04:10 PM 61.2°F16.2°C 59.5°F15.3°C 94% 8.1 mph S13.0 kmh S 11.5 mph18.5 kmh 29.54 in1000.3 mb - 0.00 in0.0 mm 0.05 in1.3 mm
04:00 PM 61.0°F16.1°C 59.3°F15.2°C 94% 10.4 mph S16.7 kmh S 12.7 mph20.4 kmh 29.55 in1000.7 mb - 0.00 in0.0 mm 0.05 in1.3 mm
03:50 PM 60.8°F16.0°C 59.4°F15.2°C 95% 5.8 mph S9.3 kmh S 10.4 mph16.7 kmh 29.55 in1000.7 mb - 0.00 in0.0 mm 0.05 in1.3 mm
03:40 PM 60.6°F15.9°C 58.9°F14.9°C 94% 10.4 mph S16.7 kmh S 12.7 mph20.4 kmh 29.55 in1000.7 mb - 0.00 in0.0 mm 0.05 in1.3 mm
03:30 PM 60.4°F15.8°C 58.7°F14.8°C 94% 6.9 mph S11.1 kmh S 9.2 mph14.8 kmh 29.55 in1000.7 mb - 0.00 in0.0 mm 0.05 in1.3 mm
03:20 PM 60.3°F15.7°C 58.5°F14.7°C 94% 8.1 mph S13.0 kmh S 15.0 mph24.1 kmh 29.56 in1001.0 mb - 0.01 in0.3 mm 0.05 in1.3 mm
03:10 PM 60.1°F15.6°C 58.4°F14.7°C 94% 5.8 mph SSW9.3 kmh SSW 6.9 mph11.1 kmh 29.56 in1001.0 mb - 0.00 in0.0 mm 0.04 in1.0 mm
03:00 PM 60.1°F15.6°C 58.4°F14.7°C 94% 8.1 mph S13.0 kmh S 13.8 mph22.2 kmh 29.56 in1001.0 mb - 0.00 in0.0 mm 0.04 in1.0 mm
02:50 PM 60.0°F15.6°C 58.3°F14.6°C 94% 6.9 mph S11.1 kmh S 10.4 mph16.7 kmh 29.56 in1001.0 mb - 0.00 in0.0 mm 0.04 in1.0 mm
02:40 PM 60.0°F15.6°C 58.2°F14.6°C 94% 9.2 mph SSW14.8 kmh SSW 12.7 mph20.4 kmh 29.56 in1001.0 mb - 0.00 in0.0 mm 0.04 in1.0 mm
02:30 PM 60.0°F15.6°C 58.3°F14.6°C 94% 6.9 mph S11.1 kmh S 8.1 mph13.0 kmh 29.56 in1001.0 mb - 0.00 in0.0 mm 0.04 in1.0 mm
02:20 PM 59.9°F15.5°C 58.1°F14.5°C 94% 10.4 mph S16.7 kmh S 16.1 mph25.9 kmh 29.56 in1001.0 mb - 0.00 in0.0 mm 0.04 in1.0 mm
02:10 PM 59.8°F15.4°C 58.1°F14.5°C 94% 6.9 mph S11.1 kmh S 12.7 mph20.4 kmh 29.57 in1001.4 mb - 0.00 in0.0 mm 0.04 in1.0 mm
02:00 PM 59.8°F15.4°C 58.1°F14.5°C 94% 11.5 mph S18.5 kmh S 13.8 mph22.2 kmh 29.57 in1001.4 mb - 0.00 in0.0 mm 0.04 in1.0 mm
01:50 PM 59.8°F15.4°C 58.1°F14.5°C 94% 6.9 mph SSW11.1 kmh SSW 9.2 mph14.8 kmh 29.57 in1001.4 mb - 0.00 in0.0 mm 0.04 in1.0 mm
01:40 PM 59.7°F15.4°C 58.0°F14.4°C 94% 6.9 mph S11.1 kmh S 5.8 mph9.3 kmh 29.57 in1001.4 mb - 0.00 in0.0 mm 0.04 in1.0 mm
01:30 PM 59.6°F15.3°C 57.9°F14.4°C 94% 4.6 mph S7.4 kmh S 4.6 mph7.4 kmh 29.57 in1001.4 mb - 0.01 in0.3 mm 0.04 in1.0 mm
01:20 PM 59.6°F15.3°C 57.9°F14.4°C 94% 9.2 mph S14.8 kmh S 10.4 mph16.7 kmh 29.57 in1001.4 mb - 0.00 in0.0 mm 0.03 in0.8 mm
01:10 PM 59.6°F15.3°C 57.8°F14.3°C 94% 3.5 mph S5.6 kmh S 4.6 mph7.4 kmh 29.57 in1001.4 mb - 0.01 in0.3 mm 0.03 in0.8 mm
01:00 PM 59.4°F15.2°C 57.4°F14.1°C 93% 4.6 mph S7.4 kmh S 8.1 mph13.0 kmh 29.57 in1001.4 mb - 0.01 in0.3 mm 0.02 in0.5 mm
12:50 PM 59.4°F15.2°C 57.4°F14.1°C 93% 6.9 mph S11.1 kmh S 8.1 mph13.0 kmh 29.57 in1001.4 mb - 0.02 in0.5 mm 0.02 in0.5 mm
12:40 PM 59.4°F15.2°C 57.1°F13.9°C 92% 4.6 mph SE7.4 kmh SE 9.2 mph14.8 kmh 29.57 in1001.4 mb - 0.00 in0.0 mm 0.01 in0.3 mm
12:30 PM 59.5°F15.3°C 57.1°F13.9°C 92% 4.6 mph S7.4 kmh S 6.9 mph11.1 kmh 29.57 in1001.4 mb - 0.00 in0.0 mm 0.01 in0.3 mm
12:20 PM 59.6°F15.3°C 56.9°F13.8°C 91% 3.5 mph SSW5.6 kmh SSW 5.8 mph9.3 kmh 29.57 in1001.4 mb - 0.00 in0.0 mm 0.01 in0.3 mm
12:10 PM 59.6°F15.3°C 56.7°F13.7°C 90% 9.2 mph S14.8 kmh S 10.4 mph16.7 kmh 29.57 in1001.4 mb - 0.00 in0.0 mm 0.01 in0.3 mm
12:00 PM 59.8°F15.4°C 56.2°F13.4°C 88% 5.8 mph S9.3 kmh S 8.1 mph13.0 kmh 29.57 in1001.4 mb - 0.01 in0.3 mm 0.01 in0.3 mm
11:50 AM 60.0°F15.6°C 56.1°F13.4°C 87% 8.1 mph SSW13.0 kmh SSW 15.0 mph24.1 kmh 29.57 in1001.4 mb - 0.00 in0.0 mm 0.00 in0.0 mm
11:40 AM 60.1°F15.6°C 55.9°F13.3°C 86% 5.8 mph S9.3 kmh S 8.1 mph13.0 kmh 29.57 in1001.4 mb - 0.00 in0.0 mm 0.00 in0.0 mm
11:30 AM 60.1°F15.6°C 55.9°F13.3°C 86% 5.8 mph S9.3 kmh S 8.1 mph13.0 kmh 29.57 in1001.4 mb - 0.00 in0.0 mm 0.00 in0.0 mm
11:20 AM 59.8°F15.4°C 55.6°F13.1°C 86% 3.5 mph S5.6 kmh S 6.9 mph11.1 kmh 29.57 in1001.4 mb - 0.00 in0.0 mm 0.00 in0.0 mm
11:10 AM 59.8°F15.4°C 55.3°F12.9°C 85% 6.9 mph S11.1 kmh S 11.5 mph18.5 kmh 29.58 in1001.7 mb - 0.00 in0.0 mm 0.00 in0.0 mm
11:00 AM 59.5°F15.3°C 55.0°F12.8°C 85% 6.9 mph S11.1 kmh S 8.1 mph13.0 kmh 29.58 in1001.7 mb - 0.00 in0.0 mm 0.00 in0.0 mm
10:50 AM 59.3°F15.2°C 55.1°F12.8°C 86% 4.6 mph S7.4 kmh S 10.4 mph16.7 kmh 29.58 in1001.7 mb - 0.00 in0.0 mm 0.00 in0.0 mm
10:40 AM 59.0°F15.0°C 54.8°F12.7°C 86% 3.5 mph S5.6 kmh S 6.9 mph11.1 kmh 29.58 in1001.7 mb - 0.00 in0.0 mm 0.00 in0.0 mm
10:30 AM 58.6°F14.8°C 55.1°F12.8°C 88% 1.2 mph SE1.9 kmh SE 3.5 mph5.6 kmh 29.58 in1001.7 mb - 0.00 in0.0 mm 0.00 in0.0 mm
10:20 AM 58.3°F14.6°C 54.8°F12.7°C 88% 3.5 mph SE5.6 kmh SE 9.2 mph14.8 kmh 29.59 in1002.0 mb - 0.00 in0.0 mm 0.00 in0.0 mm
10:10 AM 57.9°F14.4°C 54.4°F12.4°C 88% 1.2 mph S1.9 kmh S 3.5 mph5.6 kmh 29.59 in1002.0 mb - 0.00 in0.0 mm 0.00 in0.0 mm
10:00 AM 57.7°F14.3°C 54.2°F12.3°C 88% 3.5 mph SE5.6 kmh SE 3.5 mph5.6 kmh 29.59 in1002.0 mb - 0.00 in0.0 mm 0.00 in0.0 mm
09:50 AM 57.6°F14.2°C 53.8°F12.1°C 87% 4.6 mph S7.4 kmh S 9.2 mph14.8 kmh 29.60 in1002.4 mb - 0.00 in0.0 mm 0.00 in0.0 mm
09:40 AM 57.8°F14.3°C 53.3°F11.8°C 85% 4.6 mph S7.4 kmh S 6.9 mph11.1 kmh 29.60 in1002.4 mb - 0.00 in0.0 mm 0.00 in0.0 mm
09:30 AM 58.5°F14.7°C 53.0°F11.7°C 82% 8.1 mph S13.0 kmh S 12.7 mph20.4 kmh 29.60 in1002.4 mb - 0.00 in0.0 mm 0.00 in0.0 mm
09:20 AM 58.8°F14.9°C 53.0°F11.7°C 81% 2.3 mph SE3.7 kmh SE 2.3 mph3.7 kmh 29.60 in1002.4 mb - 0.00 in0.0 mm 0.00 in0.0 mm
09:10 AM 58.5°F14.7°C 53.0°F11.7°C 82% 4.6 mph S7.4 kmh S 5.8 mph9.3 kmh 29.60 in1002.4 mb - 0.00 in0.0 mm 0.00 in0.0 mm
09:00 AM 58.1°F14.5°C 52.3°F11.3°C 81% 4.6 mph SSE7.4 kmh SSE 9.2 mph14.8 kmh 29.61 in1002.7 mb - 0.00 in0.0 mm 0.00 in0.0 mm
08:50 AM 58.2°F14.6°C 52.4°F11.3°C 81% 3.5 mph S5.6 kmh S 9.2 mph14.8 kmh 29.61 in1002.7 mb - 0.00 in0.0 mm 0.00 in0.0 mm
08:40 AM 58.0°F14.4°C 52.2°F11.2°C 81% 2.3 mph SSE3.7 kmh SSE 10.4 mph16.7 kmh 29.61 in1002.7 mb - 0.00 in0.0 mm 0.00 in0.0 mm
08:30 AM 57.6°F14.2°C 51.8°F11.0°C 81% 3.5 mph ESE5.6 kmh ESE 4.6 mph7.4 kmh 29.61 in1002.7 mb - 0.00 in0.0 mm 0.00 in0.0 mm
08:20 AM 57.2°F14.0°C 51.4°F10.8°C 81% 3.5 mph SE5.6 kmh SE 6.9 mph11.1 kmh 29.61 in1002.7 mb - 0.00 in0.0 mm 0.00 in0.0 mm
08:10 AM 56.8°F13.8°C 51.1°F10.6°C 81% 1.2 mph SE1.9 kmh SE 3.5 mph5.6 kmh 29.62 in1003.0 mb - 0.00 in0.0 mm 0.00 in0.0 mm
08:00 AM 56.4°F13.6°C 50.3°F10.2°C 80% 6.9 mph SSE11.1 kmh SSE 11.5 mph18.5 kmh 29.62 in1003.0 mb - 0.00 in0.0 mm 0.00 in0.0 mm
07:50 AM 56.0°F13.3°C 49.9°F9.9°C 80% 1.2 mph SE1.9 kmh SE 3.5 mph5.6 kmh 29.63 in1003.4 mb - 0.00 in0.0 mm 0.00 in0.0 mm
07:40 AM 55.7°F13.2°C 49.6°F9.8°C 80% 1.2 mph SE1.9 kmh SE 1.2 mph1.9 kmh 29.63 in1003.4 mb - 0.00 in0.0 mm 0.00 in0.0 mm
07:30 AM 55.0°F12.8°C 48.9°F9.4°C 80% 2.3 mph SE3.7 kmh SE 3.5 mph5.6 kmh 29.63 in1003.4 mb - 0.00 in0.0 mm 0.00 in0.0 mm
07:20 AM 54.8°F12.7°C 49.0°F9.4°C 81% 3.5 mph SE5.6 kmh SE 6.9 mph11.1 kmh 29.63 in1003.4 mb - 0.00 in0.0 mm 0.00 in0.0 mm
07:10 AM 54.5°F12.5°C 48.8°F9.3°C 81% 1.2 mph N1.9 kmh N 1.2 mph1.9 kmh 29.64 in1003.7 mb - 0.00 in0.0 mm 0.00 in0.0 mm
07:00 AM 54.1°F12.3°C 48.4°F9.1°C 81% 1.2 mph E1.9 kmh E 1.2 mph1.9 kmh 29.64 in1003.7 mb - 0.00 in0.0 mm 0.00 in0.0 mm
06:50 AM 53.9°F12.2°C 48.2°F9.0°C 81% 1.2 mph SE1.9 kmh SE 2.3 mph3.7 kmh 29.65 in1004.1 mb - 0.00 in0.0 mm 0.00 in0.0 mm
06:40 AM 53.9°F12.2°C 47.9°F8.8°C 80% 1.2 mph ESE1.9 kmh ESE 3.5 mph5.6 kmh 29.65 in1004.1 mb - 0.00 in0.0 mm 0.00 in0.0 mm
06:30 AM 53.8°F12.1°C 47.8°F8.8°C 80% 1.2 mph SE1.9 kmh SE 2.3 mph3.7 kmh 29.65 in1004.1 mb - 0.00 in0.0 mm 0.00 in0.0 mm
06:20 AM 53.5°F11.9°C 47.5°F8.6°C 80% 1.2 mph SE1.9 kmh SE 2.3 mph3.7 kmh 29.65 in1004.1 mb - 0.00 in0.0 mm 0.00 in0.0 mm
06:10 AM 53.2°F11.8°C 47.2°F8.4°C 80% 1.2 mph SSE1.9 kmh SSE 3.5 mph5.6 kmh 29.65 in1004.1 mb - 0.00 in0.0 mm 0.00 in0.0 mm
06:00 AM 52.9°F11.6°C 46.9°F8.3°C 80% 1.2 mph ESE1.9 kmh ESE 5.8 mph9.3 kmh 29.64 in1003.7 mb - 0.00 in0.0 mm 0.00 in0.0 mm
05:50 AM 52.7°F11.5°C 46.4°F8.0°C 79% 2.3 mph SSE3.7 kmh SSE 4.6 mph7.4 kmh 29.64 in1003.7 mb - 0.00 in0.0 mm 0.00 in0.0 mm
05:40 AM 52.5°F11.4°C 46.1°F7.8°C 79% 2.3 mph SE3.7 kmh SE 6.9 mph11.1 kmh 29.62 in1003.0 mb - 0.00 in0.0 mm 0.00 in0.0 mm
05:30 AM 52.4°F11.3°C 45.7°F7.6°C 78% 2.3 mph E3.7 kmh E 2.3 mph3.7 kmh 29.62 in1003.0 mb - 0.00 in0.0 mm 0.00 in0.0 mm
05:20 AM 52.5°F11.4°C 45.8°F7.7°C 78% 1.2 mph SE1.9 kmh SE 3.5 mph5.6 kmh 29.64 in1003.7 mb - 0.00 in0.0 mm 0.00 in0.0 mm
05:10 AM 52.5°F11.4°C 45.5°F7.5°C 77% 1.2 mph SSE1.9 kmh SSE 2.3 mph3.7 kmh 29.66 in1004.4 mb - 0.00 in0.0 mm 0.00 in0.0 mm
05:00 AM 52.5°F11.4°C 45.1°F7.3°C 76% 1.2 mph SE1.9 kmh SE 4.6 mph7.4 kmh 29.66 in1004.4 mb - 0.00 in0.0 mm 0.00 in0.0 mm
04:50 AM 52.4°F11.3°C 45.1°F7.3°C 76% 1.2 mph SE1.9 kmh SE 3.5 mph5.6 kmh 29.66 in1004.4 mb - 0.00 in0.0 mm 0.00 in0.0 mm
04:40 AM 52.4°F11.3°C 44.7°F7.1°C 75% Calm Calm -- 29.67 in1004.7 mb - 0.00 in0.0 mm 0.00 in0.0 mm
04:30 AM 52.4°F11.3°C 44.4°F6.9°C 74% 1.2 mph SE1.9 kmh SE 2.3 mph3.7 kmh 29.67 in1004.7 mb - 0.00 in0.0 mm 0.00 in0.0 mm
04:20 AM 52.4°F11.3°C 44.0°F6.7°C 73% Calm Calm -- 29.67 in1004.7 mb - 0.00 in0.0 mm 0.00 in0.0 mm
04:10 AM 52.3°F11.3°C 43.9°F6.6°C 73% 2.3 mph SE3.7 kmh SE 3.5 mph5.6 kmh 29.67 in1004.7 mb - 0.00 in0.0 mm 0.00 in0.0 mm
04:00 AM 52.3°F11.3°C 43.5°F6.4°C 72% 1.2 mph ESE1.9 kmh ESE 1.2 mph1.9 kmh 29.68 in1005.1 mb - 0.00 in0.0 mm 0.00 in0.0 mm
03:50 AM 52.4°F11.3°C 43.3°F6.3°C 71% Calm Calm -- 29.68 in1005.1 mb - 0.00 in0.0 mm 0.00 in0.0 mm
03:40 AM 52.5°F11.4°C 43.0°F6.1°C 70% Calm Calm -- 29.68 in1005.1 mb - 0.00 in0.0 mm 0.00 in0.0 mm
03:30 AM 52.4°F11.3°C 42.9°F6.1°C 70% 1.2 mph SE1.9 kmh SE 1.2 mph1.9 kmh 29.69 in1005.4 mb - 0.00 in0.0 mm 0.00 in0.0 mm
03:20 AM 52.2°F11.2°C 42.7°F5.9°C 70% 1.2 mph ESE1.9 kmh ESE 3.5 mph5.6 kmh 29.68 in1005.1 mb - 0.00 in0.0 mm 0.00 in0.0 mm
03:10 AM 52.3°F11.3°C 42.4°F5.8°C 69% Calm Calm 2.3 mph3.7 kmh 29.68 in1005.1 mb - 0.00 in0.0 mm 0.00 in0.0 mm
03:00 AM 52.3°F11.3°C 42.0°F5.6°C 68% Calm Calm -- 29.69 in1005.4 mb - 0.00 in0.0 mm 0.00 in0.0 mm
02:50 AM 52.2°F11.2°C 42.0°F5.6°C 68% Calm Calm 1.2 mph1.9 kmh 29.69 in1005.4 mb - 0.00 in0.0 mm 0.00 in0.0 mm
02:40 AM 52.2°F11.2°C 42.0°F5.6°C 68% Calm Calm 1.2 mph1.9 kmh 29.70 in1005.8 mb - 0.00 in0.0 mm 0.00 in0.0 mm
02:30 AM 52.1°F11.2°C 41.9°F5.5°C 68% Calm Calm 1.2 mph1.9 kmh 29.70 in1005.8 mb - 0.00 in0.0 mm 0.00 in0.0 mm
02:20 AM 51.9°F11.1°C 41.7°F5.4°C 68% Calm Calm 1.2 mph1.9 kmh 29.70 in1005.8 mb - 0.00 in0.0 mm 0.00 in0.0 mm
02:10 AM 51.9°F11.1°C 41.2°F5.1°C 67% Calm Calm 1.2 mph1.9 kmh 29.70 in1005.8 mb - 0.00 in0.0 mm 0.00 in0.0 mm
02:00 AM 52.2°F11.2°C 41.6°F5.3°C 67% Calm Calm 1.2 mph1.9 kmh 29.71 in1006.1 mb - 0.00 in0.0 mm 0.00 in0.0 mm
01:50 AM 52.4°F11.3°C 41.4°F5.2°C 66% Calm Calm 2.3 mph3.7 kmh 29.71 in1006.1 mb - 0.00 in0.0 mm 0.00 in0.0 mm
01:40 AM 53.0°F11.7°C 41.5°F5.3°C 65% Calm Calm 1.2 mph1.9 kmh 29.71 in1006.1 mb - 0.00 in0.0 mm 0.00 in0.0 mm
01:30 AM 53.2°F11.8°C 41.7°F5.4°C 65% 1.2 mph ESE1.9 kmh ESE 2.3 mph3.7 kmh 29.71 in1006.1 mb - 0.00 in0.0 mm 0.00 in0.0 mm
01:20 AM 53.6°F12.0°C 41.3°F5.2°C 63% Calm Calm 4.6 mph7.4 kmh 29.72 in1006.4 mb - 0.00 in0.0 mm 0.00 in0.0 mm
01:10 AM 53.5°F11.9°C 41.2°F5.1°C 63% 1.2 mph SE1.9 kmh SE 3.5 mph5.6 kmh 29.72 in1006.4 mb - 0.00 in0.0 mm 0.00 in0.0 mm
01:00 AM 53.5°F11.9°C 41.2°F5.1°C 63% Calm Calm 1.2 mph1.9 kmh 29.73 in1006.8 mb - 0.00 in0.0 mm 0.00 in0.0 mm
12:50 AM 53.4°F11.9°C 41.1°F5.1°C 63% Calm Calm -- 29.73 in1006.8 mb - 0.00 in0.0 mm 0.00 in0.0 mm
12:40 AM 53.7°F12.1°C 41.4°F5.2°C 63% Calm Calm 1.2 mph1.9 kmh 29.74 in1007.1 mb - 0.00 in0.0 mm 0.00 in0.0 mm
12:30 AM 53.9°F12.2°C 41.6°F5.3°C 63% 1.2 mph S1.9 kmh S 1.2 mph1.9 kmh 29.75 in1007.5 mb - 0.00 in0.0 mm 0.00 in0.0 mm
12:20 AM 54.1°F12.3°C 41.4°F5.2°C 62% 1.2 mph ESE1.9 kmh ESE 2.3 mph3.7 kmh 29.75 in1007.5 mb - 0.00 in0.0 mm 0.00 in0.0 mm
12:10 AM 53.9°F12.2°C 41.2°F5.1°C 62% 1.2 mph ESE1.9 kmh ESE 4.6 mph7.4 kmh 29.75 in1007.5 mb - 0.00 in0.0 mm 0.00 in0.0 mm
12:00 AM 54.0°F12.2°C 41.3°F5.2°C 62% 1.2 mph E1.9 kmh E 2.3 mph3.7 kmh 29.75 in1007.5 mb - 0.00 in0.0 mm 0.00 in0.0 mm